Archiv-/Tagesdaten

--Timestamp---	Temp	Chill	HIndex	Humid	Dewpt	 Wind 	HiWind	WindDir	Rain 	Barom	Solar	 ET  	 UV 
--------------	----	-----	------	-----	-----	------	------	-------	-----	-----	-----	-----	----
20110819 00:00	21.2	21.2	21.2	82	18.0	0	5	270	0.0	1012.6	0	0.025	0.0
20110819 00:05	21.1	21.1	21.1	82	17.9	2	6	270	0.0	1012.5	0	0.000	0.0
20110819 00:10	21.0	21.0	21.0	83	18.0	3	6	270	0.0	1012.5	0	0.000	0.0
20110819 00:15	20.9	20.9	20.9	83	17.9	3	8	248	0.0	1012.5	0	0.000	0.0
20110819 00:20	20.9	20.9	20.9	83	17.9	3	10	248	0.0	1012.5	0	0.000	0.0
20110819 00:25	20.9	20.9	20.9	83	17.9	2	6	248	0.0	1012.5	0	0.000	0.0
20110819 00:30	20.9	20.9	20.9	83	17.9	0	5	248	0.0	1012.5	0	0.000	0.0
20110819 00:35	20.9	20.9	20.9	83	17.9	5	8	248	0.0	1012.5	0	0.000	0.0
20110819 00:40	20.9	20.9	20.9	83	17.9	3	8	248	0.0	1012.5	0	0.000	0.0
20110819 00:45	20.9	20.9	20.9	83	17.9	3	8	248	0.0	1012.6	0	0.000	0.0
20110819 00:50	20.9	20.9	20.9	82	17.7	5	10	248	0.0	1012.6	0	0.000	0.0
20110819 00:55	20.9	20.9	20.9	82	17.7	6	13	248	0.0	1012.6	0	0.000	0.0
20110819 01:00	20.9	20.9	20.9	82	17.7	5	10	225	0.0	1012.7	0	0.025	0.0
20110819 01:05	20.8	20.8	20.8	82	17.6	3	8	225	0.0	1012.8	0	0.000	0.0
20110819 01:10	20.7	20.7	20.7	83	17.7	8	23	225	0.0	1013.6	0	0.000	0.0
20110819 01:15	20.6	20.6	20.6	84	17.8	11	21	270	0.0	1013.5	0	0.000	0.0
20110819 01:20	20.5	20.5	20.5	84	17.7	8	14	270	0.0	1013.8	0	0.000	0.0
20110819 01:25	20.4	20.4	20.4	83	17.5	6	10	270	0.0	1013.7	0	0.000	0.0
20110819 01:30	20.4	20.4	20.4	83	17.5	5	10	270	0.0	1013.7	0	0.000	0.0
20110819 01:35	20.6	20.6	20.6	82	17.4	6	11	270	0.0	1013.8	0	0.000	0.0
20110819 01:40	20.6	20.6	20.6	82	17.4	5	10	270	0.0	1013.8	0	0.000	0.0
20110819 01:45	20.6	20.6	20.6	81	17.2	5	10	270	0.0	1013.7	0	0.000	0.0
20110819 01:50	20.7	20.7	20.7	80	17.1	5	11	225	0.0	1013.5	0	0.000	0.0
20110819 01:55	20.7	20.7	20.7	81	17.3	5	10	225	0.0	1013.4	0	0.000	0.0
20110819 02:00	20.7	20.7	20.7	81	17.3	2	8	225	0.2	1013.3	0	0.025	0.0
20110819 02:05	20.6	20.6	20.6	81	17.2	6	11	225	0.0	1013.4	0	0.000	0.0
20110819 02:10	20.4	20.4	20.4	81	17.1	6	11	225	0.0	1013.4	0	0.000	0.0
20110819 02:15	20.4	20.4	20.4	81	17.0	8	19	202	0.0	1013.4	0	0.000	0.0
20110819 02:20	20.4	20.4	20.4	81	17.1	6	11	180	0.0	1013.2	0	0.000	0.0
20110819 02:25	20.4	20.4	20.4	82	17.3	2	5	180	0.0	1013.0	0	0.000	0.0
20110819 02:30	20.4	20.4	20.4	81	17.1	6	16	202	0.0	1013.1	0	0.000	0.0
20110819 02:35	20.4	20.4	20.4	82	17.3	8	16	202	0.0	1013.3	0	0.000	0.0
20110819 02:40	20.4	20.4	20.4	82	17.3	8	14	202	0.0	1013.3	0	0.000	0.0
20110819 02:45	20.3	20.3	20.3	82	17.2	10	16	202	0.0	1013.3	0	0.000	0.0
20110819 02:50	20.3	20.3	20.3	82	17.1	10	21	202	0.0	1013.2	0	0.000	0.0
20110819 02:55	20.2	20.2	20.2	83	17.2	10	18	202	0.0	1013.2	0	0.000	0.0
20110819 03:00	20.2	20.2	20.2	83	17.2	11	21	202	0.0	1013.3	0	0.025	0.0
20110819 03:05	20.1	20.1	20.1	83	17.1	8	16	202	0.0	1013.1	0	0.000	0.0
20110819 03:10	20.1	20.1	20.1	82	16.9	8	16	202	0.0	1013.0	0	0.000	0.0
20110819 03:15	20.1	20.1	20.1	83	17.1	5	14	158	0.0	1013.0	0	0.000	0.0
20110819 03:20	20.0	20.0	20.0	82	16.8	8	16	180	0.0	1013.0	0	0.000	0.0
20110819 03:25	20.0	20.0	20.0	83	17.0	6	14	180	0.0	1013.0	0	0.000	0.0
20110819 03:30	19.9	19.9	19.9	83	17.0	6	16	180	0.0	1013.0	0	0.000	0.0
20110819 03:35	19.8	19.8	19.8	83	16.9	5	16	180	0.0	1012.9	0	0.000	0.0
20110819 03:40	19.7	19.7	19.7	83	16.7	5	10	202	0.0	1012.9	0	0.000	0.0
20110819 03:45	19.7	19.7	19.7	83	16.7	6	14	180	0.0	1013.1	0	0.000	0.0
20110819 03:50	19.6	19.6	19.6	83	16.6	5	14	180	0.0	1013.1	0	0.000	0.0
20110819 03:55	19.6	19.6	19.6	83	16.6	6	18	180	0.0	1013.0	0	0.000	0.0
20110819 04:00	19.5	19.5	19.5	83	16.5	6	16	180	0.0	1013.1	0	0.025	0.0
20110819 04:05	19.5	19.5	19.5	83	16.5	5	10	180	0.0	1013.2	0	0.000	0.0
20110819 04:10	19.4	19.4	19.4	83	16.5	6	16	180	0.0	1013.2	0	0.000	0.0
20110819 04:15	19.4	19.4	19.4	83	16.4	8	21	180	0.0	1013.1	0	0.000	0.0
20110819 04:20	19.4	19.4	19.4	83	16.4	5	14	202	0.0	1013.1	0	0.000	0.0
20110819 04:25	19.4	19.4	19.4	83	16.4	6	14	180	0.0	1013.1	0	0.000	0.0
20110819 04:30	19.4	19.4	19.4	83	16.4	5	11	158	0.0	1013.1	0	0.000	0.0
20110819 04:35	19.4	19.4	19.4	83	16.4	5	16	135	0.0	1013.1	0	0.000	0.0
20110819 04:40	19.4	19.4	19.4	82	16.2	8	19	180	0.0	1013.2	0	0.000	0.0
20110819 04:45	19.4	19.4	19.4	82	16.3	6	14	180	0.0	1013.3	0	0.000	0.0
20110819 04:50	19.4	19.4	19.4	81	16.1	6	11	180	0.0	1013.3	0	0.000	0.0
20110819 04:55	19.4	19.4	19.4	81	16.1	6	11	202	0.0	1013.3	0	0.000	0.0
20110819 05:00	19.5	19.5	19.5	81	16.1	6	14	225	0.0	1013.3	-100000	0.025	0.0
20110819 05:05	19.5	19.5	19.5	80	16.0	6	11	180	0.0	1013.2	-100000	0.000	0.0
20110819 05:10	19.6	19.6	19.6	80	16.0	6	14	180	0.0	1013.2	0	0.000	0.0
20110819 05:15	19.6	19.6	19.6	80	16.0	6	11	202	0.0	1013.2	0	0.000	0.0
20110819 05:20	19.6	19.6	19.6	79	15.8	5	14	202	0.0	1013.3	0	0.000	0.0
20110819 05:25	19.5	19.5	19.5	79	15.8	6	14	202	0.0	1013.3	0	0.000	0.0
20110819 05:30	19.4	19.4	19.4	79	15.7	6	11	202	0.0	1013.3	0	0.000	0.0
20110819 05:35	19.4	19.4	19.4	79	15.7	5	11	202	0.0	1013.2	0	0.000	0.0
20110819 05:40	19.3	19.3	19.3	79	15.6	3	11	225	0.0	1013.2	0	0.000	0.0
20110819 05:45	19.2	19.2	19.2	80	15.7	3	10	225	0.0	1013.2	0	0.000	0.0
20110819 05:50	19.2	19.2	19.2	80	15.6	2	6	202	0.0	1013.1	0	0.000	0.0
20110819 05:55	19.1	19.1	19.1	81	15.7	3	8	202	0.0	1013.3	0	0.000	0.0
20110819 06:00	18.9	18.9	18.9	81	15.6	3	6	202	0.0	1013.3	0	0.025	0.0
20110819 06:05	18.9	18.9	18.9	81	15.6	3	8	202	0.0	1013.6	0	0.000	0.0
20110819 06:10	18.8	18.8	18.8	81	15.4	5	10	202	0.0	1013.8	0	0.000	0.0
20110819 06:15	18.7	18.7	18.7	82	15.6	5	10	202	0.0	1013.8	0	0.000	0.0
20110819 06:20	18.6	18.6	18.6	82	15.5	5	11	202	0.0	1013.8	0	0.000	0.0
20110819 06:25	18.6	18.6	18.6	82	15.4	3	10	180	0.0	1013.9	4	0.000	0.0
20110819 06:30	18.5	18.5	18.5	82	15.4	6	13	202	0.0	1013.9	8	0.000	0.0
20110819 06:35	18.5	18.5	18.5	82	15.4	5	8	180	0.0	1013.9	15	0.000	0.0
20110819 06:40	18.5	18.5	18.5	83	15.6	5	10	180	0.0	1013.9	25	0.000	0.0
20110819 06:45	18.5	18.5	18.5	83	15.6	5	8	180	0.0	1014.0	29	0.000	0.0
20110819 06:50	18.6	18.6	18.6	82	15.4	6	10	202	0.0	1014.0	28	0.000	0.0
20110819 06:55	18.6	18.6	18.6	82	15.4	5	8	202	0.0	1014.0	40	0.000	0.0
20110819 07:00	18.7	18.7	18.7	82	15.5	5	8	202	0.0	1013.9	44	0.025	0.0
20110819 07:05	18.7	18.7	18.7	82	15.5	5	10	225	0.0	1014.0	58	0.000	0.0
20110819 07:10	18.7	18.7	18.7	82	15.6	6	10	202	0.0	1014.0	60	0.000	0.0
20110819 07:15	18.8	18.8	18.8	82	15.6	5	8	202	0.0	1014.2	48	0.000	0.0
20110819 07:20	18.9	18.9	18.9	82	15.7	5	8	202	0.0	1014.2	48	0.000	0.0
20110819 07:25	18.9	18.9	18.9	82	15.8	5	8	202	0.0	1014.3	41	0.000	0.0
20110819 07:30	19.0	19.0	19.0	82	15.9	3	10	202	0.0	1014.4	46	0.000	0.0
20110819 07:35	19.1	19.1	19.1	82	15.9	5	8	202	0.0	1014.4	54	0.000	0.0
20110819 07:40	19.2	19.2	19.2	82	16.0	5	11	248	0.0	1014.6	41	0.000	0.0
20110819 07:45	19.3	19.3	19.3	81	15.9	6	14	270	0.0	1014.7	31	0.000	0.0
20110819 07:50	19.5	19.5	19.5	81	16.1	8	16	270	0.0	1014.8	50	0.000	0.0
20110819 07:55	19.8	19.8	19.8	80	16.3	10	16	270	0.0	1014.7	70	0.000	0.0
20110819 08:00	20.1	20.1	20.1	79	16.3	11	24	270	0.0	1014.9	74	0.051	0.0
20110819 08:05	20.6	20.6	20.6	78	16.6	13	24	292	0.0	1015.3	75	0.000	0.0
20110819 08:10	21.0	21.0	21.0	76	16.6	19	37	270	0.0	1015.4	61	0.000	0.0
20110819 08:15	21.3	21.3	21.3	76	16.9	21	34	270	0.0	1015.6	40	0.000	0.0
20110819 08:20	21.2	21.2	21.2	76	16.8	23	37	270	0.0	1015.7	21	0.000	0.0
20110819 08:25	21.0	21.0	21.0	78	17.0	23	37	270	0.0	1016.0	13	0.000	0.0
20110819 08:30	20.2	20.2	20.2	82	17.0	24	42	270	0.6	1016.3	9	0.000	0.0
20110819 08:35	19.5	19.5	19.5	85	16.9	16	27	270	0.2	1016.5	15	0.000	0.0
20110819 08:40	19.2	19.2	19.2	86	16.8	13	24	270	0.2	1016.6	32	0.000	0.0
20110819 08:45	18.9	18.9	18.9	87	16.7	13	24	270	0.2	1016.5	36	0.000	0.0
20110819 08:50	18.8	18.8	18.8	88	16.7	8	16	270	0.0	1016.6	36	0.000	0.0
20110819 08:55	18.7	18.7	18.7	88	16.7	10	21	248	0.2	1016.6	28	0.000	0.0
20110819 09:00	18.6	18.6	18.6	88	16.5	11	21	248	0.0	1016.7	26	0.051	0.0
20110819 09:05	18.5	18.5	18.5	88	16.5	10	19	248	0.2	1017.1	-100000	0.000	0.0
20110819 09:10	18.5	18.5	18.5	88	16.5	11	24	248	0.0	1017.0	22	0.000	0.0
20110819 09:15	18.5	18.5	18.5	88	16.5	11	21	248	0.4	1016.8	27	0.000	0.0
20110819 09:20	18.4	18.4	18.4	87	16.2	8	19	225	0.2	1016.5	24	0.000	0.0
20110819 09:25	18.4	18.4	18.4	88	16.4	5	10	248	0.2	1016.2	15	0.000	0.0
20110819 09:30	18.3	18.3	18.3	88	16.3	6	13	292	0.2	1016.6	12	0.000	0.0
20110819 09:35	18.2	18.2	18.2	88	16.2	8	16	270	0.2	1016.7	16	0.000	0.0
20110819 09:40	18.2	18.2	18.2	88	16.1	13	21	248	0.2	1016.9	26	0.000	0.0
20110819 09:45	18.1	18.1	18.1	89	16.3	10	19	248	0.0	1016.8	38	0.000	0.0
20110819 09:50	18.1	18.1	18.1	89	16.3	10	18	248	0.0	1016.8	61	0.000	0.6
20110819 09:55	18.2	18.2	18.2	89	16.3	11	21	248	0.0	1016.8	104	0.000	1.4
20110819 10:00	18.3	18.3	18.3	89	16.4	8	11	225	0.0	1016.8	125	0.051	1.9
20110819 10:05	18.4	18.4	18.4	90	16.8	6	16	225	0.0	1017.0	142	0.000	2.2
20110819 10:10	18.7	18.7	18.7	90	17.0	8	16	248	0.0	1016.9	180	0.000	2.3
20110819 10:15	18.8	18.8	18.8	89	16.9	8	18	225	0.0	1017.0	117	0.000	2.3
20110819 10:20	18.9	18.9	18.9	88	16.9	14	24	225	0.0	1016.9	90	0.000	2.4
20110819 10:25	19.3	19.3	19.3	88	17.2	13	19	248	0.0	1016.9	80	0.000	2.4
20110819 10:30	19.6	19.6	19.6	87	17.3	13	24	248	0.0	1016.7	75	0.000	2.5
20110819 10:35	19.9	19.9	19.9	85	17.3	11	24	248	0.0	1016.6	432	0.000	2.7
20110819 10:40	20.3	20.3	20.3	83	17.3	13	24	248	0.0	1016.6	573	0.000	4.3
20110819 10:45	20.6	20.6	20.6	81	17.2	14	23	248	0.0	1016.5	598	0.000	4.6
20110819 10:50	20.9	20.9	20.9	80	17.3	13	24	248	0.0	1016.4	630	0.000	4.9
20110819 10:55	21.2	21.2	21.2	81	17.8	10	19	270	0.0	1016.3	645	0.000	4.9
20110819 11:00	21.4	21.4	21.4	78	17.4	13	23	248	0.0	1016.3	658	0.229	5.1
20110819 11:05	21.7	21.7	21.7	80	18.1	10	21	225	0.0	1016.5	667	0.000	5.3
20110819 11:10	21.9	21.9	21.9	77	17.7	13	21	225	0.0	1016.4	678	0.000	5.4
20110819 11:15	22.3	22.3	22.3	77	18.0	8	16	248	0.0	1016.3	688	0.000	5.6
20110819 11:20	22.6	22.6	22.6	77	18.3	6	16	270	0.0	1016.3	697	0.000	5.7
20110819 11:25	22.8	22.8	22.8	75	18.2	11	23	248	0.0	1016.3	704	0.000	5.9
20110819 11:30	23.1	23.1	23.1	75	18.4	11	19	248	0.0	1016.0	709	0.000	6.0
20110819 11:35	23.3	23.3	23.3	74	18.4	10	18	248	0.0	1016.1	717	0.000	6.1
20110819 11:40	23.6	23.6	23.6	73	18.4	11	21	248	0.0	1016.2	723	0.000	6.2
20110819 11:45	23.7	23.7	23.7	73	18.5	10	14	270	0.0	1016.2	731	0.000	6.4
20110819 11:50	23.9	23.9	24.7	73	18.8	10	16	292	0.0	1016.1	738	0.000	6.5
20110819 11:55	24.2	24.2	25.1	71	18.6	8	18	270	0.0	1016.1	742	0.000	6.6
20110819 12:00	24.4	24.4	25.4	70	18.6	8	19	270	0.0	1016.0	747	0.457	6.7
20110819 12:05	24.8	24.8	25.7	70	18.9	11	21	248	0.0	1016.0	760	0.000	6.9
20110819 12:10	25.2	25.2	26.2	67	18.6	13	21	248	0.0	1016.0	773	0.000	7.0
20110819 12:15	25.4	25.4	26.4	68	19.0	11	23	292	0.0	1015.7	770	0.000	7.1
20110819 12:20	25.6	25.6	26.6	67	19.0	16	24	270	0.0	1015.6	771	0.000	7.1
20110819 12:25	25.8	25.8	26.9	66	18.9	10	23	270	0.0	1015.6	777	0.000	7.3
20110819 12:30	25.9	25.9	27.0	65	18.8	11	19	292	0.0	1015.7	780	0.000	7.4
20110819 12:35	26.1	26.1	27.2	64	18.8	14	29	270	0.0	1015.7	785	0.000	7.4
20110819 12:40	26.3	26.3	27.4	63	18.7	14	26	292	0.0	1015.7	791	0.000	7.5
20110819 12:45	26.3	26.3	27.4	62	18.5	16	26	270	0.0	1015.7	790	0.000	7.5
20110819 12:50	26.4	26.4	27.6	63	18.8	14	23	270	0.0	1015.6	798	0.000	7.6
20110819 12:55	26.6	26.6	27.8	64	19.2	16	24	270	0.0	1015.6	797	0.000	7.6
20110819 13:00	26.8	26.8	27.9	61	18.6	13	24	270	0.0	1015.4	807	0.559	7.7
20110819 13:05	27.1	27.1	28.2	60	18.6	13	27	248	0.0	1015.4	824	0.000	7.8
20110819 13:10	27.2	27.2	28.3	60	18.7	16	24	270	0.0	1015.4	817	0.000	7.8
20110819 13:15	27.1	27.1	28.2	60	18.7	16	31	270	0.0	1015.3	832	0.000	7.4
20110819 13:20	27.2	27.2	28.3	59	18.5	16	26	270	0.0	1015.3	832	0.000	7.9
20110819 13:25	27.4	27.4	28.8	61	19.2	16	26	270	0.0	1015.3	811	0.000	7.5
20110819 13:30	27.6	27.6	28.8	59	18.9	16	29	270	0.0	1015.4	754	0.000	6.6
20110819 13:35	27.8	27.8	29.1	59	19.1	14	24	270	0.0	1015.4	720	0.000	6.4
20110819 13:40	27.7	27.7	28.9	59	19.0	13	23	315	0.0	1015.3	496	0.000	5.1
20110819 13:45	27.3	27.3	28.5	60	18.9	14	24	315	0.0	1015.3	304	0.000	5.7
20110819 13:50	27.3	27.3	28.4	59	18.6	10	18	315	0.0	1015.2	679	0.000	5.8
20110819 13:55	27.6	27.6	28.7	58	18.6	10	19	292	0.0	1015.2	873	0.000	7.2
20110819 14:00	27.8	27.8	29.0	59	19.0	16	26	292	0.0	1015.3	631	0.559	6.0
20110819 14:05	27.8	27.8	28.8	56	18.2	14	29	270	0.0	1015.2	574	0.000	6.3
20110819 14:10	27.8	27.8	28.8	56	18.2	16	26	292	0.0	1015.3	714	0.000	6.3
20110819 14:15	27.9	27.9	28.7	54	17.7	18	29	270	0.0	1015.3	344	0.000	5.2
20110819 14:20	27.8	27.8	28.5	53	17.3	16	27	270	0.0	1015.3	635	0.000	5.6
20110819 14:25	27.8	27.8	28.5	53	17.4	19	34	292	0.0	1015.3	690	0.000	5.6
20110819 14:30	27.8	27.8	28.6	54	17.7	18	29	292	0.0	1015.2	682	0.000	6.2
20110819 14:35	27.8	27.8	28.6	54	17.6	19	34	270	0.0	1015.2	681	0.000	5.9
20110819 14:40	27.9	27.9	28.8	54	17.8	18	29	292	0.0	1015.2	778	0.000	6.5
20110819 14:45	28.2	28.2	29.0	54	18.0	18	29	270	0.0	1015.1	677	0.000	5.7
20110819 14:50	28.1	28.1	28.9	53	17.6	18	29	292	0.0	1015.2	793	0.000	5.8
20110819 14:55	28.2	28.2	28.9	53	17.7	18	32	292	0.0	1015.1	753	0.000	4.9
20110819 15:00	28.2	28.2	28.9	53	17.7	16	27	270	0.0	1015.1	372	0.508	4.6
20110819 15:05	28.1	28.1	28.9	53	17.6	16	29	292	0.0	1015.1	584	0.000	4.6
20110819 15:10	27.9	27.9	28.8	54	17.8	14	24	270	0.0	1015.2	531	0.000	5.0
20110819 15:15	28.0	28.0	28.8	54	17.8	18	24	292	0.0	1015.1	660	0.000	5.1
20110819 15:20	28.2	28.2	29.0	53	17.7	16	29	292	0.0	1015.0	617	0.000	5.1
20110819 15:25	28.3	28.3	29.1	53	17.8	18	29	270	0.0	1015.0	428	0.000	4.3
20110819 15:30	28.3	28.3	29.1	53	17.8	16	27	292	0.0	1014.9	708	0.000	4.6
20110819 15:35	28.3	28.3	29.3	54	18.1	14	24	292	0.0	1014.9	655	0.000	4.7
20110819 15:40	28.6	28.6	29.5	54	18.3	16	23	270	0.0	1014.8	699	0.000	4.6
20110819 15:45	28.8	28.8	29.7	53	18.2	14	23	292	0.0	1014.7	672	0.000	4.8
20110819 15:50	28.8	28.8	29.7	52	18.0	18	37	270	0.0	1014.8	657	0.000	4.5
20110819 15:55	28.8	28.8	29.5	51	17.6	14	29	292	0.0	1014.7	668	0.000	4.2
20110819 16:00	28.9	28.9	29.8	52	18.0	16	27	270	0.0	1014.8	631	0.508	4.2
20110819 16:05	29.1	29.1	29.7	50	17.6	18	35	292	0.0	1014.8	612	0.000	4.0
20110819 16:10	29.0	29.0	29.7	50	17.5	19	29	270	0.0	1014.7	605	0.000	3.9
20110819 16:15	28.9	28.9	29.6	50	17.5	19	32	270	0.0	1014.7	602	0.000	3.7
20110819 16:20	29.0	29.0	29.8	51	17.8	18	35	292	0.0	1014.8	582	0.000	3.6
20110819 16:25	28.9	28.9	29.7	51	17.8	19	35	270	0.0	1014.9	572	0.000	3.4
20110819 16:30	28.8	28.8	29.6	51	17.7	19	32	292	0.0	1014.8	553	0.000	3.3
20110819 16:35	28.9	28.9	29.8	52	18.1	14	24	292	0.0	1014.9	576	0.000	3.1
20110819 16:40	29.1	29.1	29.9	51	17.9	16	29	270	0.0	1014.9	473	0.000	2.8
20110819 16:45	29.1	29.1	29.7	50	17.6	18	31	270	0.0	1014.9	493	0.000	2.8
20110819 16:50	29.1	29.1	29.7	50	17.6	21	34	292	0.0	1014.9	559	0.000	2.7
20110819 16:55	28.9	28.9	29.6	50	17.5	21	32	270	0.0	1014.9	412	0.000	2.2
20110819 17:00	28.7	28.7	29.5	52	17.8	14	26	292	0.0	1014.9	189	0.483	1.8
20110819 17:05	28.1	28.1	29.2	57	18.7	10	24	315	0.0	1015.2	96	0.000	1.2
20110819 17:10	27.4	27.4	28.6	60	18.9	2	8	315	0.0	1015.5	79	0.000	0.8
20110819 17:15	26.3	26.3	27.4	62	18.5	10	21	22	0.0	1015.6	61	0.000	0.3
20110819 17:20	25.6	25.6	26.7	65	18.5	8	21	22	0.0	1015.8	95	0.000	0.2
20110819 17:25	25.6	25.6	26.6	66	18.7	3	10	22	0.0	1015.8	443	0.000	1.4
20110819 17:30	25.9	25.9	27.0	66	19.0	2	8	45	0.0	1015.8	383	0.000	1.4
20110819 17:35	26.2	26.2	27.2	63	18.6	3	8	315	0.0	1015.6	318	0.000	1.4
20110819 17:40	26.3	26.3	27.3	60	17.9	6	19	315	0.0	1015.7	289	0.000	1.3
20110819 17:45	26.4	26.4	27.4	59	17.8	6	16	315	0.0	1015.6	279	0.000	1.2
20110819 17:50	26.3	26.3	27.3	60	17.9	6	16	315	0.0	1015.8	181	0.000	1.1
20110819 17:55	25.9	25.9	27.0	64	18.6	3	16	0	0.0	1015.7	171	0.000	1.0
20110819 18:00	25.8	25.8	26.9	67	19.2	2	5	315	0.0	1015.8	219	0.178	1.0
20110819 18:05	25.7	25.7	26.7	66	18.8	2	8	270	0.0	1015.9	177	0.000	1.0
20110819 18:10	25.6	25.6	26.6	67	19.0	3	10	315	0.0	1016.0	136	0.000	0.9
20110819 18:15	25.5	25.5	26.6	68	19.1	3	10	338	0.0	1016.0	154	0.000	0.8
20110819 18:20	25.6	25.6	26.6	67	19.0	2	10	315	0.0	1015.9	175	0.000	0.7
20110819 18:25	25.6	25.6	26.7	67	19.0	3	11	315	0.0	1016.0	187	0.000	0.7
20110819 18:30	25.7	25.7	26.8	67	19.1	2	8	315	0.0	1016.0	183	0.000	0.6
20110819 18:35	25.7	25.7	26.8	66	18.9	0	6	315	0.0	1016.0	232	0.000	0.6
20110819 18:40	25.8	25.8	26.9	66	18.9	2	8	315	0.0	1016.0	159	0.000	0.5
20110819 18:45	25.6	25.6	26.6	63	18.0	10	18	315	0.0	1016.1	99	0.000	0.3
20110819 18:50	25.3	25.3	26.3	63	17.7	13	23	315	0.0	1016.3	84	0.000	0.0
20110819 18:55	25.2	25.2	26.2	63	17.6	13	26	292	0.0	1016.6	171	0.000	0.0
20110819 19:00	25.2	25.2	26.1	61	17.1	13	23	292	0.0	1016.5	78	0.127	0.0
20110819 19:05	25.1	25.1	26.1	59	16.5	13	24	292	0.0	1016.6	50	0.000	0.0
20110819 19:10	24.9	24.9	25.9	60	16.6	13	21	270	0.0	1016.7	29	0.000	0.0
20110819 19:15	24.8	24.8	25.8	60	16.5	11	19	270	0.0	1016.8	24	0.000	0.0
20110819 19:20	24.7	24.7	25.8	60	16.4	13	21	270	0.0	1016.8	31	0.000	0.0
20110819 19:25	24.7	24.7	25.7	60	16.4	10	16	292	0.0	1016.7	40	0.000	0.0
20110819 19:30	24.6	24.6	25.7	61	16.6	10	18	270	0.0	1017.1	26	0.000	0.0
20110819 19:35	24.1	24.1	25.1	68	17.8	18	35	248	0.4	1017.2	19	0.000	0.0
20110819 19:40	22.7	22.7	22.7	71	17.2	10	19	270	0.2	1017.1	-100000	0.000	0.0
20110819 19:45	22.1	22.1	22.1	73	17.0	11	21	270	0.0	1017.3	32	0.000	0.0
20110819 19:50	21.8	21.8	21.8	75	17.2	8	16	270	0.4	1017.1	106	0.000	0.0
20110819 19:55	21.5	21.5	21.5	78	17.5	5	8	270	0.0	1017.0	73	0.000	0.0
20110819 20:00	21.2	21.2	21.2	79	17.4	5	10	292	0.0	1017.1	23	0.076	0.0
20110819 20:05	20.9	20.9	20.9	81	17.6	5	10	292	0.0	1017.3	13	0.000	0.0
20110819 20:10	20.7	20.7	20.7	82	17.5	5	8	292	0.0	1017.5	10	0.000	0.0
20110819 20:15	20.6	20.6	20.6	83	17.6	3	8	292	0.0	1017.5	6	0.000	0.0
20110819 20:20	20.4	20.4	20.4	83	17.5	3	8	292	0.0	1017.5	3	0.000	0.0
20110819 20:25	20.3	20.3	20.3	84	17.5	2	6	292	0.0	1017.5	0	0.000	0.0
20110819 20:30	20.2	20.2	20.2	84	17.4	0	2	292	0.0	1017.7	0	0.000	0.0
20110819 20:35	20.0	20.0	20.0	84	17.2	2	5	292	0.0	1017.7	0	0.000	0.0
20110819 20:40	19.9	19.9	19.9	84	17.1	3	6	315	0.0	1017.8	0	0.000	0.0
20110819 20:45	19.8	19.8	19.8	84	17.0	5	11	292	0.0	1017.7	0	0.000	0.0
20110819 20:50	19.9	19.9	19.9	84	17.1	5	11	292	0.0	1017.9	0	0.000	0.0
20110819 20:55	19.9	19.9	19.9	83	16.9	6	11	292	0.0	1017.9	0	0.000	0.0
20110819 21:00	19.9	19.9	19.9	83	16.9	3	8	292	0.0	1018.0	0	0.025	0.0
20110819 21:05	19.8	19.8	19.8	84	17.0	2	6	292	0.0	1018.1	0	0.000	0.0
20110819 21:10	19.8	19.8	19.8	84	17.0	2	6	292	0.0	1018.1	0	0.000	0.0
20110819 21:15	19.7	19.7	19.7	84	16.9	5	8	292	0.0	1018.2	0	0.000	0.0
20110819 21:20	19.6	19.6	19.6	84	16.8	5	8	270	0.0	1018.3	0	0.000	0.0
20110819 21:25	19.6	19.6	19.6	85	17.0	5	8	270	0.0	1018.4	0	0.000	0.0
20110819 21:30	19.4	19.4	19.4	85	16.9	5	8	270	0.0	1018.3	0	0.000	0.0
20110819 21:35	19.4	19.4	19.4	85	16.8	5	8	270	0.0	1018.3	0	0.000	0.0
20110819 21:40	19.4	19.4	19.4	85	16.8	3	6	270	0.0	1018.3	0	0.000	0.0
20110819 21:45	19.4	19.4	19.4	85	16.8	3	10	270	0.0	1018.5	0	0.000	0.0
20110819 21:50	19.4	19.4	19.4	85	16.8	3	8	270	0.0	1018.5	0	0.000	0.0
20110819 21:55	19.4	19.4	19.4	85	16.8	3	6	292	0.0	1018.5	0	0.000	0.0
20110819 22:00	19.4	19.4	19.4	85	16.8	5	6	292	0.0	1018.7	0	0.025	0.0
20110819 22:05	19.4	19.4	19.4	85	16.8	3	6	292	0.0	1018.4	0	0.000	0.0
20110819 22:10	19.3	19.3	19.3	85	16.7	5	8	292	0.0	1018.5	0	0.000	0.0
20110819 22:15	19.2	19.2	19.2	86	16.8	6	10	202	0.0	1018.6	0	0.000	0.0
20110819 22:20	19.1	19.1	19.1	86	16.7	3	8	202	0.0	1018.8	0	0.000	0.0
20110819 22:25	18.9	18.9	18.9	87	16.7	3	8	202	0.0	1018.8	0	0.000	0.0
20110819 22:30	18.8	18.8	18.8	87	16.6	5	6	202	0.0	1018.8	0	0.000	0.0
20110819 22:35	18.7	18.7	18.7	87	16.5	5	8	202	0.0	1018.8	0	0.000	0.0
20110819 22:40	18.7	18.7	18.7	87	16.5	5	8	202	0.0	1018.8	0	0.000	0.0
20110819 22:45	18.6	18.6	18.6	88	16.6	5	8	202	0.0	1018.9	0	0.000	0.0
20110819 22:50	18.6	18.6	18.6	88	16.5	5	8	202	0.0	1018.9	0	0.000	0.0
20110819 22:55	18.6	18.6	18.6	88	16.5	6	8	202	0.0	1018.9	0	0.000	0.0
20110819 23:00	18.5	18.5	18.5	88	16.5	5	8	202	0.0	1019.0	0	0.025	0.0
20110819 23:05	18.4	18.4	18.4	89	16.6	5	8	202	0.0	1018.8	0	0.000	0.0
20110819 23:10	18.4	18.4	18.4	89	16.5	2	6	202	0.0	1018.8	0	0.000	0.0
20110819 23:15	18.4	18.4	18.4	89	16.5	0	2	202	0.0	1018.9	0	0.000	0.0
20110819 23:20	18.4	18.4	18.4	89	16.5	2	5	202	0.0	1018.9	0	0.000	0.0
20110819 23:25	18.3	18.3	18.3	89	16.5	0	3	202	0.0	1019.0	0	0.000	0.0
20110819 23:30	18.3	18.3	18.3	89	16.4	0	2	202	0.0	1019.1	0	0.000	0.0
20110819 23:35	18.3	18.3	18.3	89	16.4	0	3	202	0.0	1019.2	0	0.000	0.0
20110819 23:40	18.2	18.2	18.2	89	16.3	3	10	22	0.0	1019.3	0	0.000	0.0
20110819 23:45	18.1	18.1	18.1	89	16.3	0	2	22	0.0	1019.2	0	0.000	0.0
20110819 23:50	18.1	18.1	18.1	89	16.2	0	0	-100000	0.0	1019.2	0	0.000	0.0
20110819 23:55	18.1	18.1	18.1	90	16.4	0	0	-100000	0.0	1019.2	0	0.000	0.0



Please note the license to use and transfer of this data:
http://creativecommons.org/licenses/by-nc-sa/3.0/deed.en

Bitte beachten sie die Lizenz zur Verwertung und Weitergabe der Daten:
http://creativecommons.org/licenses/by-nc-sa/3.0/deed.de

zurück zur Übersicht der Archivdaten (Monats und Tagesdaten)

Cookies helfen bei der Bereitstellung von Inhalten. Durch die Nutzung dieser Seiten erklärst du dich damit einverstanden, dass Cookies auf deinem Rechner gespeichert werden. Weitere Information